Time;durP1;ratioP1;P1;durP2;ratioP2;P2;SDS_P1;SDS_P2;PMS_P1;PMS_P2;Temp;Humidity;BMP_temperature;BMP_pressure;BME280_temperature;BME280_humidity;BME280_pressure;Samples;Min_cycle;Max_cycle;Signal;HPM_P1;HPM_P2
2023/10/13 00:02:07;;;;;;;17.23;8.20;;;18.30;99.90;;;;;;5073606;28;20081;-77
2023/10/13 00:04:35;;;;;;;16.60;8.25;;;18.30;99.90;;;;;;5055997;28;20021;-77
2023/10/13 00:07:02;;;;;;;17.08;9.07;;;18.30;99.90;;;;;;5073520;28;20013;-77
2023/10/13 00:09:38;;;;;;;15.60;8.52;;;18.30;99.90;;;;;;5055631;28;20024;-77
2023/10/13 00:12:11;;;;;;;19.10;9.05;;;18.30;99.90;;;;;;5073605;28;20021;-77
2023/10/13 00:14:39;;;;;;;16.92;9.30;;;18.30;99.90;;;;;;5055871;28;20145;-77
2023/10/13 00:17:15;;;;;;;17.95;8.45;;;18.30;99.90;;;;;;5055768;28;20028;-77
2023/10/13 00:19:51;;;;;;;16.48;8.48;;;18.30;99.90;;;;;;5055775;28;20013;-77
2023/10/13 00:22:19;;;;;;;14.60;7.97;;;18.30;99.90;;;;;;5072530;28;20025;-77
2023/10/13 00:24:45;;;;;;;15.45;8.23;;;18.30;99.90;;;;;;5073237;28;20017;-77
2023/10/13 00:30:22;;;;;;;16.65;8.65;;;18.30;99.90;;;;;;5050386;28;20049;-77
2023/10/13 00:32:56;;;;;;;22.02;8.95;;;18.30;99.90;;;;;;5040352;28;20116;-77
2023/10/13 00:35:29;;;;;;;19.67;9.10;;;18.30;99.90;;;;;;5055471;28;20029;-77
2023/10/13 00:38:12;;;;;;;15.95;7.90;;;18.20;99.90;;;;;;5038951;28;20097;-77
2023/10/13 00:40:42;;;;;;;16.95;9.00;;;18.20;99.90;;;;;;5055560;28;20056;-77
2023/10/13 00:48:35;;;;;;;16.13;8.10;;;18.30;99.90;;;;;;5073151;28;20103;-77
2023/10/13 00:51:07;;;;;;;15.63;8.63;;;18.20;99.90;;;;;;5055386;28;20021;-77
2023/10/13 00:53:37;;;;;;;20.92;8.88;;;18.30;99.90;;;;;;5055390;28;20032;-77
2023/10/13 00:56:07;;;;;;;16.55;8.13;;;18.30;99.90;;;;;;5073003;28;20056;-77
2023/10/13 00:58:39;;;;;;;16.58;7.93;;;18.30;99.90;;;;;;5073047;28;20029;-77
2023/10/13 01:01:29;;;;;;;22.80;9.07;;;18.30;99.90;;;;;;5072001;28;20029;-77
2023/10/13 01:03:55;;;;;;;16.15;8.60;;;18.30;99.90;;;;;;5073116;28;20158;-77
2023/10/13 01:06:25;;;;;;;18.77;8.48;;;18.30;99.90;;;;;;5072780;28;20105;-77
2023/10/13 01:08:57;;;;;;;18.50;8.65;;;18.30;99.90;;;;;;5055200;28;20025;-77
2023/10/13 01:11:23;;;;;;;17.98;9.07;;;18.20;99.90;;;;;;5055319;28;20044;-77
2023/10/13 01:13:51;;;;;;;16.20;8.80;;;18.20;99.90;;;;;;5055188;28;20028;-77
2023/10/13 01:16:26;;;;;;;18.15;9.43;;;18.20;99.90;;;;;;5072760;28;20185;-77
2023/10/13 01:18:53;;;;;;;22.40;9.60;;;18.10;99.90;;;;;;5072876;28;20071;-77
2023/10/13 01:21:27;;;;;;;18.30;8.63;;;18.20;99.90;;;;;;5075955;28;20039;-77
2023/10/13 01:23:53;;;;;;;16.48;8.77;;;18.20;99.90;;;;;;5058904;28;20075;-77
2023/10/13 01:26:24;;;;;;;15.20;8.85;;;18.20;99.90;;;;;;5058780;28;20059;-77
2023/10/13 01:28:59;;;;;;;18.13;9.63;;;18.20;99.90;;;;;;5059008;28;20021;-77
2023/10/13 01:31:26;;;;;;;18.52;8.70;;;18.10;99.90;;;;;;5059071;28;20025;-77
2023/10/13 01:33:54;;;;;;;16.20;8.23;;;18.20;99.90;;;;;;5058670;28;20017;-77
2023/10/13 01:36:22;;;;;;;16.17;8.50;;;18.10;99.90;;;;;;5076365;28;20021;-77
2023/10/13 01:38:49;;;;;;;17.50;8.55;;;18.10;99.90;;;;;;5058611;28;20033;-77
2023/10/13 01:41:16;;;;;;;18.55;8.18;;;18.10;99.90;;;;;;5076306;28;20106;-77
2023/10/13 01:43:41;;;;;;;17.38;8.63;;;18.10;99.90;;;;;;5076161;28;20029;-78
2023/10/13 01:46:09;;;;;;;16.38;7.78;;;18.20;99.90;;;;;;5041717;28;20060;-78
2023/10/13 01:48:38;;;;;;;18.23;8.50;;;18.20;99.90;;;;;;5076117;28;20044;-77
2023/10/13 01:51:10;;;;;;;14.60;8.02;;;18.20;99.90;;;;;;5075187;28;20025;-77
2023/10/13 01:53:39;;;;;;;13.55;7.13;;;18.10;99.90;;;;;;5076235;28;20036;-77
2023/10/13 01:56:10;;;;;;;15.18;7.85;;;18.10;99.90;;;;;;5075118;28;20033;-78
2023/10/13 01:58:37;;;;;;;13.80;7.50;;;18.10;99.90;;;;;;5058312;28;20036;-77
2023/10/13 02:01:03;;;;;;;17.58;7.28;;;18.20;99.90;;;;;;5058222;28;20036;-77
2023/10/13 02:03:29;;;;;;;15.48;7.20;;;18.10;99.90;;;;;;5058342;28;20033;-77
2023/10/13 02:06:03;;;;;;;14.10;6.93;;;18.20;99.90;;;;;;5058174;28;20029;-77
2023/10/13 02:08:29;;;;;;;15.55;7.28;;;18.20;99.90;;;;;;5075777;28;20028;-77
2023/10/13 02:10:56;;;;;;;16.52;7.43;;;18.10;99.90;;;;;;5058043;28;20380;-77
2023/10/13 02:13:23;;;;;;;18.35;7.35;;;18.10;99.90;;;;;;5057952;28;20043;-77
2023/10/13 02:15:52;;;;;;;11.88;6.32;;;18.20;99.90;;;;;;5074656;28;20084;-77
2023/10/13 02:18:41;;;;;;;12.60;6.40;;;18.20;99.90;;;;;;5075556;28;20029;-77
2023/10/13 02:21:12;;;;;;;10.57;6.30;;;18.10;99.90;;;;;;5075575;28;20027;-77
2023/10/13 02:23:45;;;;;;;16.37;7.93;;;18.10;99.90;;;;;;5057922;28;20039;-77
2023/10/13 02:26:29;;;;;;;13.75;7.25;;;18.20;99.90;;;;;;5057802;28;20360;-78
2023/10/13 02:28:57;;;;;;;12.80;6.53;;;18.20;99.90;;;;;;5074708;28;20021;-77
2023/10/13 02:31:24;;;;;;;15.20;6.88;;;18.20;99.90;;;;;;5057848;28;20029;-77
2023/10/13 02:33:50;;;;;;;13.85;7.93;;;18.20;99.90;;;;;;5057587;28;20032;-77
2023/10/13 02:36:22;;;;;;;14.23;7.32;;;18.20;99.90;;;;;;5074344;28;20040;-77
2023/10/13 02:38:50;;;;;;;;;;;18.20;99.90;;;;;;5057990;28;20033;-77
2023/10/13 02:41:28;;;;;;;12.40;6.40;;;18.20;99.90;;;;;;5075156;28;19904;-77
2023/10/13 02:43:55;;;;;;;16.65;7.60;;;18.10;99.90;;;;;;5057260;28;20025;-77
2023/10/13 02:46:22;;;;;;;17.25;7.97;;;18.10;99.90;;;;;;5057368;28;20025;-77
2023/10/13 02:48:52;;;;;;;15.18;8.25;;;18.10;99.90;;;;;;5057337;28;20025;-77
2023/10/13 02:51:27;;;;;;;17.63;9.32;;;18.20;99.90;;;;;;5057372;28;20025;-77
2023/10/13 02:53:53;;;;;;;15.57;8.48;;;18.20;99.90;;;;;;5074147;28;20029;-77
2023/10/13 02:56:22;;;;;;;17.35;8.77;;;18.20;99.90;;;;;;5040683;28;20054;-78
2023/10/13 02:59:05;;;;;;;16.55;8.93;;;18.10;99.90;;;;;;5057227;28;20028;-78
2023/10/13 03:01:35;;;;;;;19.55;9.27;;;18.20;99.90;;;;;;5057116;28;20024;-77
2023/10/13 03:04:08;;;;;;;19.63;9.68;;;18.20;99.90;;;;;;5073766;28;20057;-77
2023/10/13 03:06:35;;;;;;;21.55;10.10;;;18.20;99.90;;;;;;5074602;28;20028;-77
2023/10/13 03:09:18;;;;;;;18.65;9.00;;;18.20;99.90;;;;;;5040519;28;20021;-77
2023/10/13 03:11:48;;;;;;;20.00;10.70;;;18.10;99.90;;;;;;5074764;28;20041;-77
2023/10/13 03:14:24;;;;;;;18.92;10.68;;;18.10;99.90;;;;;;5056885;28;20104;-77
2023/10/13 03:17:08;;;;;;;23.17;10.60;;;18.10;99.90;;;;;;5057015;28;20052;-77
2023/10/13 03:19:36;;;;;;;18.98;10.77;;;18.10;99.90;;;;;;5074412;28;20032;-77
2023/10/13 03:22:09;;;;;;;19.73;9.90;;;18.10;99.90;;;;;;5074345;28;20499;-77
2023/10/13 03:24:36;;;;;;;21.95;10.48;;;18.10;99.90;;;;;;5056772;28;20021;-77
2023/10/13 03:27:08;;;;;;;19.95;10.88;;;18.10;99.90;;;;;;5056651;28;20024;-77
2023/10/13 03:29:44;;;;;;;22.58;11.32;;;18.10;99.90;;;;;;5057152;28;20021;-77
2023/10/13 03:32:15;;;;;;;20.35;10.13;;;18.10;99.90;;;;;;5040771;28;20097;-77
2023/10/13 03:37:37;;;;;;;24.88;11.23;;;18.20;99.90;;;;;;5058926;28;20093;-77
2023/10/13 03:40:16;;;;;;;20.58;10.77;;;18.20;99.90;;;;;;5074082;28;20040;-77
2023/10/13 03:42:41;;;;;;;22.55;10.32;;;18.20;99.90;;;;;;5041151;28;20031;-77
2023/10/13 03:45:10;;;;;;;22.63;10.38;;;18.30;99.90;;;;;;5055967;28;20076;-77
2023/10/13 03:47:38;;;;;;;21.30;10.68;;;18.30;99.90;;;;;;5073851;28;20025;-78
2023/10/13 03:50:29;;;;;;;23.00;10.35;;;18.30;99.90;;;;;;5056564;28;20021;-77
2023/10/13 03:52:57;;;;;;;22.60;10.05;;;18.30;99.90;;;;;;5042865;28;20032;-77
2023/10/13 03:55:26;;;;;;;20.67;10.45;;;18.20;99.90;;;;;;5073764;28;20021;-77
2023/10/13 03:57:53;;;;;;;21.05;10.57;;;18.20;99.90;;;;;;5040066;28;20025;-77
2023/10/13 04:00:30;;;;;;;22.13;10.82;;;18.20;99.90;;;;;;5056006;28;20020;-77
2023/10/13 04:05:36;;;;;;;22.00;11.35;;;18.20;99.90;;;;;;5073628;28;20033;-77
2023/10/13 04:08:46;;;;;;;25.35;11.73;;;18.20;99.90;;;;;;5057370;28;20021;-77
2023/10/13 04:21:41;;;;;;;21.07;10.50;;;18.20;99.90;;;;;;5073399;28;20092;-77
2023/10/13 04:24:22;;;;;;;24.00;11.38;;;18.20;99.90;;;;;;5055762;28;20274;-77
2023/10/13 04:32:28;;;;;;;22.40;11.45;;;18.30;99.90;;;;;;5049780;28;20033;-77
2023/10/13 04:40:24;;;;;;;27.88;10.82;;;18.30;99.90;;;;;;5058469;28;20067;-77
2023/10/13 04:42:56;;;;;;;25.10;11.52;;;18.30;99.90;;;;;;5055486;28;20096;-77
2023/10/13 04:50:58;;;;;;;21.95;10.35;;;18.40;99.90;;;;;;5073336;28;20032;-77
2023/10/13 04:53:33;;;;;;;21.55;10.73;;;18.40;99.90;;;;;;5040166;28;20030;-77
2023/10/13 04:56:07;;;;;;;23.77;10.70;;;18.40;99.90;;;;;;5059702;28;20025;-77
2023/10/13 05:45:23;;;;;;;12.27;7.13;;;18.50;99.90;;;;;;5060783;28;20087;-77
2023/10/13 06:28:41;;;;;;;9.98;5.95;;;18.70;99.90;;;;;;5074615;28;20108;-78
2023/10/13 06:31:07;;;;;;;11.05;6.05;;;18.70;99.90;;;;;;5073662;28;20028;-77
2023/10/13 06:33:44;;;;;;;11.60;5.60;;;18.70;99.90;;;;;;5056580;28;20029;-77
2023/10/13 06:36:09;;;;;;;12.95;5.88;;;18.70;99.90;;;;;;5056632;28;20029;-77
2023/10/13 06:38:36;;;;;;;10.23;6.00;;;18.70;99.90;;;;;;5056531;28;20029;-77
2023/10/13 06:41:05;;;;;;;10.93;5.72;;;18.70;99.90;;;;;;5056488;28;20028;-78
2023/10/13 06:43:43;;;;;;;11.30;6.53;;;18.70;99.90;;;;;;5074059;28;20029;-78
2023/10/13 06:46:42;;;;;;;11.75;6.05;;;18.70;99.90;;;;;;5131682;27;1284189;-80
2023/10/13 06:49:10;;;;;;;13.57;7.75;;;18.70;99.90;;;;;;5114113;27;20382;-80
2023/10/13 06:51:37;;;;;;;9.70;6.32;;;18.80;99.90;;;;;;5116214;27;20047;-79
2023/10/13 06:54:09;;;;;;;11.88;6.38;;;18.80;99.90;;;;;;5110991;28;20027;-80
2023/10/13 06:56:39;;;;;;;14.65;6.63;;;18.80;99.90;;;;;;5094685;28;20088;-80
2023/10/13 06:59:06;;;;;;;12.88;5.95;;;18.80;99.90;;;;;;5095434;28;20027;-80
2023/10/13 07:01:38;;;;;;;13.35;6.10;;;18.80;99.90;;;;;;5095926;28;20418;-80
2023/10/13 07:04:06;;;;;;;16.05;6.72;;;18.80;99.90;;;;;;5112823;28;20019;-80
2023/10/13 07:06:31;;;;;;;13.73;6.97;;;18.80;99.90;;;;;;5096096;28;20050;-80
2023/10/13 07:08:57;;;;;;;13.52;5.85;;;18.80;99.90;;;;;;5095800;28;20020;-80
2023/10/13 07:11:42;;;;;;;12.10;5.97;;;18.80;99.90;;;;;;5112685;28;20027;-80
2023/10/13 07:14:16;;;;;;;13.90;5.35;;;18.80;99.90;;;;;;5130863;27;20020;-80
2023/10/13 07:16:58;;;;;;;10.88;5.65;;;18.90;99.90;;;;;;5096840;28;20032;-80
2023/10/13 07:19:27;;;;;;;13.88;5.60;;;18.90;99.90;;;;;;5112488;28;20026;-80
2023/10/13 07:21:58;;;;;;;12.55;6.35;;;18.80;99.90;;;;;;5079737;28;20031;-80
2023/10/13 07:24:32;;;;;;;12.57;5.70;;;18.80;99.90;;;;;;5130779;27;20480;-80
2023/10/13 07:27:07;;;;;;;10.32;5.13;;;18.80;99.90;;;;;;5112502;28;20019;-80
2023/10/13 07:29:36;;;;;;;10.88;5.30;;;18.80;99.90;;;;;;5096227;28;20023;-80
2023/10/13 07:32:03;;;;;;;10.95;5.05;;;18.80;99.90;;;;;;5112194;27;20388;-80
2023/10/13 07:34:35;;;;;;;12.02;5.13;;;18.80;99.90;;;;;;5112962;28;20537;-79
2023/10/13 07:37:01;;;;;;;11.00;4.80;;;18.80;99.90;;;;;;5096202;28;20049;-80
2023/10/13 07:39:28;;;;;;;11.60;4.90;;;18.80;99.90;;;;;;5130711;28;20489;-81
2023/10/13 07:41:55;;;;;;;13.52;5.32;;;18.80;99.90;;;;;;5095283;28;20027;-80
2023/10/13 07:44:31;;;;;;;11.95;5.72;;;18.80;99.90;;;;;;5095435;28;20441;-80
2023/10/13 07:46:58;;;;;;;12.13;5.38;;;18.80;99.90;;;;;;5096090;28;20086;-80
2023/10/13 07:49:36;;;;;;;12.55;5.40;;;18.90;99.90;;;;;;5095244;27;20027;-80
2023/10/13 07:52:35;;;;;;;13.57;4.88;;;18.90;99.90;;;;;;5111984;28;20495;-80
2023/10/13 07:55:11;;;;;;;10.85;5.15;;;18.90;99.90;;;;;;5116649;28;20524;-80
2023/10/13 07:57:56;;;;;;;12.45;5.47;;;18.90;99.90;;;;;;5084974;28;20557;-80
2023/10/13 08:03:17;;;;;;;19.40;6.45;;;19.00;99.90;;;;;;5116674;28;20070;-80
2023/10/13 08:06:28;;;;;;;17.15;6.45;;;19.00;99.90;;;;;;5068422;28;20089;-80
2023/10/13 08:08:40;;;;;;;9.85;5.38;;;19.10;99.90;;;;;;5102751;28;20023;-80
2023/10/13 08:16:54;;;;;;;13.07;5.43;;;19.10;99.90;;;;;;5116405;28;20042;-80
2023/10/13 08:35:09;;;;;;;11.32;5.05;;;19.50;99.90;;;;;;5115901;28;20031;-80
2023/10/13 08:37:56;;;;;;;15.98;5.28;;;19.50;99.90;;;;;;5115839;28;20049;-81
2023/10/13 08:40:43;;;;;;;11.93;5.15;;;19.60;99.90;;;;;;5100588;28;20039;-80
2023/10/13 08:43:12;;;;;;;13.70;5.03;;;19.80;99.90;;;;;;5068428;28;20028;-80
2023/10/13 08:53:33;;;;;;;15.73;5.40;;;19.90;99.90;;;;;;5115722;28;20489;-80
2023/10/13 09:04:33;;;;;;;10.82;4.63;;;20.20;99.90;;;;;;5100008;28;20062;-80
2023/10/13 09:12:35;;;;;;;11.18;4.95;;;20.20;99.60;;;;;;5115155;28;20489;-80
2023/10/13 09:18:12;;;;;;;12.45;4.90;;;20.30;99.70;;;;;;5115056;28;20377;-80
2023/10/13 09:23:12;;;;;;;9.45;4.40;;;20.30;99.30;;;;;;5096962;28;20032;-80
2023/10/13 09:25:38;;;;;;;;;;;20.30;99.10;;;;;;5096808;28;20055;-80
2023/10/13 09:28:14;;;;;;;15.05;4.95;;;20.30;99.00;;;;;;5096510;28;19930;-80
2023/10/13 09:30:56;;;;;;;12.90;4.70;;;20.30;98.90;;;;;;5114781;28;20035;-80
2023/10/13 09:33:33;;;;;;;11.15;5.00;;;20.20;97.90;;;;;;5096338;28;20055;-80
2023/10/13 09:35:59;;;;;;;12.73;4.28;;;20.30;98.50;;;;;;5080633;28;20032;-81
2023/10/13 09:38:28;;;;;;;10.43;5.05;;;20.30;98.10;;;;;;5079264;28;20024;-80
2023/10/13 09:40:57;;;;;;;13.43;4.93;;;20.30;98.10;;;;;;5096260;28;20362;-80
2023/10/13 09:43:28;;;;;;;10.13;4.88;;;20.30;98.10;;;;;;5096723;28;20095;-80
2023/10/13 09:46:06;;;;;;;12.40;4.80;;;20.40;98.30;;;;;;5095817;28;20066;-81
2023/10/13 09:48:33;;;;;;;12.80;4.80;;;20.40;97.80;;;;;;5096337;28;20535;-80
2023/10/13 09:51:08;;;;;;;9.90;4.72;;;20.40;98.00;;;;;;5096156;28;20028;-81
2023/10/13 09:53:38;;;;;;;11.50;5.30;;;20.40;97.70;;;;;;5096054;28;20023;-80
2023/10/13 09:56:14;;;;;;;11.85;5.25;;;20.40;97.60;;;;;;5096840;28;20031;-80
2023/10/13 09:59:10;;;;;;;16.58;5.43;;;20.50;97.50;;;;;;5114187;28;20161;-80
2023/10/13 10:01:51;;;;;;;13.93;5.32;;;20.60;97.10;;;;;;5094295;28;20059;-80
2023/10/13 10:04:19;;;;;;;10.05;4.07;;;20.60;96.70;;;;;;5096620;28;20392;-81
2023/10/13 10:07:00;;;;;;;10.05;5.13;;;20.60;96.40;;;;;;5095817;28;20016;-80
2023/10/13 10:09:34;;;;;;;12.32;4.70;;;20.60;96.50;;;;;;5079021;28;20027;-81
2023/10/13 10:12:18;;;;;;;11.52;5.45;;;20.60;96.60;;;;;;5095596;28;20385;-80
2023/10/13 10:15:13;;;;;;;12.80;4.43;;;20.60;96.60;;;;;;5113831;28;20115;-80
2023/10/13 10:17:41;;;;;;;11.35;5.47;;;20.70;95.90;;;;;;5095741;28;20027;-80
2023/10/13 10:20:14;;;;;;;14.80;5.22;;;20.70;96.10;;;;;;5095539;28;20024;-80
2023/10/13 10:22:47;;;;;;;9.05;5.20;;;20.70;96.50;;;;;;5079317;28;20473;-80
2023/10/13 10:25:25;;;;;;;14.02;5.72;;;20.80;96.10;;;;;;5096340;28;20114;-81
2023/10/13 10:27:58;;;;;;;12.07;5.25;;;20.80;95.50;;;;;;5095416;28;20080;-81
2023/10/13 10:30:28;;;;;;;14.18;5.45;;;20.80;95.80;;;;;;5095462;28;20106;-81
2023/10/13 10:33:01;;;;;;;12.13;4.95;;;20.80;95.50;;;;;;5078653;28;20028;-81
2023/10/13 10:35:32;;;;;;;12.63;5.47;;;20.80;95.30;;;;;;5078992;28;20031;-81
2023/10/13 10:40:58;;;;;;;15.75;5.15;;;20.80;94.90;;;;;;5096653;28;20044;-81
2023/10/13 10:43:27;;;;;;;11.90;5.53;;;20.80;95.10;;;;;;5078323;28;20032;-80
2023/10/13 10:45:53;;;;;;;12.95;5.47;;;20.80;95.20;;;;;;5112842;28;20058;-81
2023/10/13 10:48:21;;;;;;;12.25;5.32;;;20.80;95.00;;;;;;5094826;28;20047;-81
2023/10/13 10:50:56;;;;;;;10.63;5.03;;;20.90;94.90;;;;;;5061651;28;20024;-81
2023/10/13 10:53:23;;;;;;;14.00;5.45;;;20.80;94.70;;;;;;5094970;28;20478;-81
2023/10/13 10:55:49;;;;;;;11.77;5.72;;;20.90;94.90;;;;;;5078160;28;20119;-80
2023/10/13 10:58:30;;;;;;;12.25;5.05;;;20.90;94.80;;;;;;5094917;28;20030;-80
2023/10/13 11:01:10;;;;;;;12.23;5.63;;;20.90;94.90;;;;;;5084022;28;20049;-80
2023/10/13 11:03:42;;;;;;;17.88;5.75;;;21.00;94.90;;;;;;5082477;28;20019;-81
2023/10/13 11:06:17;;;;;;;8.63;4.60;;;21.00;95.00;;;;;;5133491;28;20381;-80
2023/10/13 11:08:43;;;;;;;15.75;5.85;;;21.00;94.90;;;;;;5098724;28;20067;-80
2023/10/13 11:11:17;;;;;;;14.00;6.15;;;21.00;95.00;;;;;;5098120;28;20054;-81
2023/10/13 11:13:54;;;;;;;10.10;5.40;;;21.00;94.50;;;;;;5078424;28;20057;-81
2023/10/13 11:16:34;;;;;;;10.27;5.65;;;21.10;94.50;;;;;;5094000;28;20027;-81
2023/10/13 11:19:01;;;;;;;11.07;5.20;;;21.20;93.90;;;;;;5093489;28;20028;-81
2023/10/13 11:21:31;;;;;;;10.70;5.10;;;21.30;93.90;;;;;;5060696;28;20032;-81
2023/10/13 11:24:08;;;;;;;12.35;4.88;;;21.30;94.00;;;;;;5112871;28;20039;-81
2023/10/13 11:26:49;;;;;;;13.70;5.35;;;21.40;93.30;;;;;;5078128;28;20028;-81
2023/10/13 11:29:20;;;;;;;14.35;4.97;;;21.50;92.70;;;;;;5117717;28;20019;-81
2023/10/13 11:31:53;;;;;;;9.95;5.50;;;21.60;92.80;;;;;;5098105;27;20031;-81
2023/10/13 11:34:19;;;;;;;14.13;5.07;;;21.60;92.50;;;;;;5101668;27;20028;-81
2023/10/13 11:36:45;;;;;;;11.93;5.00;;;21.60;91.90;;;;;;5118617;27;20023;-81
2023/10/13 11:39:30;;;;;;;10.98;4.47;;;21.70;91.90;;;;;;5118655;27;20028;-81
2023/10/13 11:41:55;;;;;;;12.95;5.15;;;21.60;91.90;;;;;;5104327;27;20028;-81
2023/10/13 11:44:30;;;;;;;14.35;4.85;;;21.70;91.80;;;;;;5101592;27;20042;-81
2023/10/13 11:46:56;;;;;;;19.73;5.63;;;21.80;92.20;;;;;;5097988;28;20050;-81
2023/10/13 11:52:02;;;;;;;16.58;6.20;;;21.90;92.20;;;;;;5116564;28;20074;-81
2023/10/13 11:54:28;;;;;;;14.13;5.00;;;21.90;91.90;;;;;;5082278;28;20447;-81
2023/10/13 11:56:58;;;;;;;10.68;5.00;;;21.90;91.90;;;;;;5098030;28;20492;-81
2023/10/13 11:59:28;;;;;;;18.58;5.25;;;22.00;91.90;;;;;;5082153;28;20416;-81
2023/10/13 12:04:51;;;;;;;13.02;5.38;;;22.00;90.90;;;;;;5100857;28;20073;-81
2023/10/13 12:07:20;;;;;;;12.07;4.82;;;22.10;91.50;;;;;;5083025;28;20023;-81
2023/10/13 12:12:26;;;;;;;15.27;5.43;;;22.10;91.20;;;;;;5116305;28;20542;-81
2023/10/13 12:14:56;;;;;;;12.32;4.80;;;22.10;91.10;;;;;;5097848;28;20036;-81
2023/10/13 12:17:34;;;;;;;12.77;5.28;;;22.10;90.10;;;;;;5081367;28;20028;-81
2023/10/13 12:20:09;;;;;;;10.18;4.78;;;22.20;90.30;;;;;;5116119;28;20027;-81
2023/10/13 12:22:38;;;;;;;17.70;6.38;;;22.20;90.30;;;;;;5098764;28;20112;-81
2023/10/13 12:25:34;;;;;;;13.50;5.15;;;22.20;90.50;;;;;;5114683;28;20092;-81
2023/10/13 12:30:52;;;;;;;13.23;5.60;;;22.30;90.40;;;;;;5100628;28;20463;-81
2023/10/13 12:33:25;;;;;;;14.20;5.30;;;22.30;90.70;;;;;;5097426;28;20024;-81
2023/10/13 12:36:09;;;;;;;14.40;5.75;;;22.50;90.60;;;;;;5097465;28;20028;-81
2023/10/13 12:48:55;;;;;;;13.15;5.38;;;22.50;90.70;;;;;;5115885;28;20107;-81
2023/10/13 12:52:16;;;;;;;16.05;5.70;;;22.60;89.90;;;;;;5115843;28;20388;-81
2023/10/13 12:54:58;;;;;;;14.60;5.75;;;22.60;90.20;;;;;;5097255;28;20015;-81
2023/10/13 12:57:28;;;;;;;13.57;5.15;;;22.60;90.10;;;;;;5067206;28;20100;-81
2023/10/13 12:59:54;;;;;;;12.55;5.00;;;22.60;89.40;;;;;;5080524;28;20114;-81
2023/10/13 13:02:21;;;;;;;12.50;4.78;;;22.60;88.30;;;;;;5097339;28;20060;-80
2023/10/13 13:04:53;;;;;;;11.45;4.88;;;22.60;88.50;;;;;;5080160;28;20053;-81
2023/10/13 13:07:18;;;;;;;13.82;5.28;;;22.70;89.20;;;;;;5115405;28;20578;-81
2023/10/13 13:09:44;;;;;;;14.07;4.90;;;22.70;89.20;;;;;;5096958;28;20028;-81
2023/10/13 13:12:12;;;;;;;15.77;5.53;;;22.70;87.50;;;;;;5063434;28;20059;-81
2023/10/13 13:14:41;;;;;;;14.63;5.22;;;22.70;88.80;;;;;;5063944;28;20043;-81
2023/10/13 13:17:06;;;;;;;11.02;4.82;;;22.70;89.10;;;;;;5097240;28;20098;-81
2023/10/13 13:19:39;;;;;;;12.57;5.45;;;22.70;88.50;;;;;;5096684;28;20054;-81
2023/10/13 13:22:11;;;;;;;12.48;4.63;;;22.70;88.00;;;;;;5079912;28;20081;-81
2023/10/13 13:24:43;;;;;;;13.40;4.47;;;22.70;87.70;;;;;;5096259;28;20111;-81
2023/10/13 13:27:13;;;;;;;10.65;4.68;;;22.70;86.80;;;;;;5079956;28;20027;-81
2023/10/13 13:29:42;;;;;;;14.32;4.85;;;22.80;86.90;;;;;;5096402;28;20032;-81
2023/10/13 13:32:23;;;;;;;13.98;4.47;;;22.70;87.20;;;;;;5096461;28;20020;-81
2023/10/13 13:35:04;;;;;;;9.05;4.43;;;22.70;86.90;;;;;;5114552;28;20483;-81
2023/10/13 13:37:31;;;;;;;14.98;5.07;;;22.70;86.70;;;;;;5095951;28;20020;-81
2023/10/13 13:40:13;;;;;;;11.55;4.35;;;22.70;86.80;;;;;;5079625;28;20035;-81
2023/10/13 13:42:43;;;;;;;10.18;4.63;;;22.70;85.00;;;;;;5081548;28;20035;-81
2023/10/13 13:45:27;;;;;;;17.42;5.30;;;22.80;83.50;;;;;;5096073;28;20458;-80
2023/10/13 13:47:56;;;;;;;12.30;4.53;;;22.80;84.20;;;;;;5065583;28;20035;-81
2023/10/13 13:50:28;;;;;;;9.18;3.85;;;22.80;85.20;;;;;;5079722;28;20016;-81
2023/10/13 13:52:56;;;;;;;10.68;4.25;;;22.80;85.00;;;;;;5079257;28;20016;-80
2023/10/13 13:55:28;;;;;;;13.85;4.50;;;22.80;84.60;;;;;;5113761;28;20024;-81
2023/10/13 13:57:56;;;;;;;20.67;4.43;;;22.70;84.70;;;;;;5114289;28;20056;-81
2023/10/13 14:03:12;;;;;;;12.60;4.18;;;22.70;85.30;;;;;;5114378;28;20077;-81
2023/10/13 14:05:45;;;;;;;13.13;4.07;;;22.70;84.40;;;;;;5114058;28;20431;-81
2023/10/13 14:08:15;;;;;;;12.80;4.47;;;22.70;84.20;;;;;;5079151;28;20115;-81
2023/10/13 14:16:16;;;;;;;9.98;4.05;;;22.60;85.40;;;;;;5098577;28;20152;-81
2023/10/13 14:18:45;;;;;;;12.57;4.20;;;22.60;85.40;;;;;;5081332;28;20020;-80
2023/10/13 14:21:16;;;;;;;13.55;5.38;;;22.60;85.30;;;;;;5079363;28;20488;-81
2023/10/13 14:23:49;;;;;;;8.85;3.85;;;22.60;85.30;;;;;;5079349;28;20106;-81
2023/10/13 14:26:21;;;;;;;12.95;4.18;;;22.60;85.80;;;;;;5079250;28;20024;-81
2023/10/13 14:29:09;;;;;;;11.82;3.60;;;22.60;84.30;;;;;;5063008;28;20051;-81
2023/10/13 14:31:39;;;;;;;11.32;4.00;;;22.60;84.50;;;;;;5067084;28;20024;-81
2023/10/13 14:34:06;;;;;;;13.07;4.35;;;22.60;84.60;;;;;;5113623;28;20012;-81
2023/10/13 14:36:35;;;;;;;13.90;4.55;;;22.60;84.70;;;;;;5095959;28;20072;-81
2023/10/13 14:39:02;;;;;;;10.85;4.55;;;22.60;84.90;;;;;;5078827;28;20063;-81
2023/10/13 14:41:29;;;;;;;15.52;4.43;;;22.60;85.30;;;;;;5113673;28;20028;-81
2023/10/13 14:44:02;;;;;;;11.25;4.00;;;22.60;84.40;;;;;;5078564;28;20119;-81
2023/10/13 14:46:28;;;;;;;12.13;4.30;;;22.60;84.50;;;;;;5079284;28;20039;-80
2023/10/13 14:48:54;;;;;;;9.32;4.00;;;22.60;84.10;;;;;;5078689;28;20055;-81
2023/10/13 14:51:20;;;;;;;10.40;4.47;;;22.60;84.40;;;;;;5078313;28;20055;-81
2023/10/13 14:53:47;;;;;;;10.55;4.25;;;22.60;83.90;;;;;;5078327;28;20063;-80
2023/10/13 14:56:14;;;;;;;9.68;4.30;;;22.60;83.60;;;;;;5113184;28;20450;-81
2023/10/13 14:58:42;;;;;;;13.80;4.10;;;22.60;84.30;;;;;;5113469;28;20027;-81
2023/10/13 15:01:15;;;;;;;11.05;4.40;;;22.60;83.80;;;;;;5095646;28;20045;-81
2023/10/13 15:03:45;;;;;;;11.25;3.75;;;22.60;83.10;;;;;;5078496;28;20028;-81
2023/10/13 15:06:24;;;;;;;10.38;4.05;;;22.70;83.80;;;;;;5095013;28;20077;-81
2023/10/13 15:08:51;;;;;;;11.38;4.30;;;22.70;83.50;;;;;;5117480;28;20012;-81
2023/10/13 15:11:19;;;;;;;9.77;4.13;;;22.60;84.10;;;;;;5099373;28;20031;-81
2023/10/13 15:13:48;;;;;;;11.88;4.25;;;22.60;84.30;;;;;;5082626;28;20537;-80
2023/10/13 15:16:16;;;;;;;9.75;4.93;;;22.60;84.40;;;;;;5082598;28;20473;-81
2023/10/13 15:18:44;;;;;;;15.68;4.65;;;22.50;84.90;;;;;;5117453;28;20332;-81
2023/10/13 15:21:10;;;;;;;13.75;4.65;;;22.50;84.40;;;;;;5117505;28;20031;-81
2023/10/13 15:23:42;;;;;;;12.10;4.38;;;22.40;85.40;;;;;;5065482;28;20032;-81
2023/10/13 15:26:09;;;;;;;;;;;22.50;85.60;;;;;;5100245;28;20484;-81
2023/10/13 15:28:37;;;;;;;11.07;4.30;;;22.40;85.70;;;;;;5082398;28;20361;-79
2023/10/13 15:31:22;;;;;;;10.82;4.28;;;22.40;85.90;;;;;;5066175;28;20070;-79
2023/10/13 15:33:52;;;;;;;14.63;5.22;;;22.30;86.00;;;;;;5084666;28;20032;-79
2023/10/13 15:36:19;;;;;;;9.60;4.00;;;22.30;87.40;;;;;;5117004;28;20035;-79
2023/10/13 15:38:46;;;;;;;9.20;4.10;;;22.20;88.70;;;;;;5082105;28;20035;-79
2023/10/13 15:41:12;;;;;;;10.93;3.88;;;22.10;89.40;;;;;;5099385;28;20115;-79
2023/10/13 15:43:42;;;;;;;11.68;5.05;;;22.00;89.70;;;;;;5098423;28;20080;-79
2023/10/13 15:46:16;;;;;;;13.77;4.82;;;21.90;90.20;;;;;;5065412;28;20048;-79
2023/10/13 15:48:44;;;;;;;10.85;4.60;;;21.80;90.30;;;;;;5116705;28;20046;-80
2023/10/13 15:51:14;;;;;;;12.30;4.30;;;21.70;90.20;;;;;;5081947;28;20068;-79
2023/10/13 15:53:41;;;;;;;12.75;4.18;;;21.70;90.40;;;;;;5098324;28;20028;-79
2023/10/13 15:56:11;;;;;;;11.25;4.85;;;21.70;90.50;;;;;;5081835;28;20080;-79
2023/10/13 15:58:43;;;;;;;10.75;5.25;;;21.70;90.50;;;;;;5082427;28;20034;-78
2023/10/13 16:01:12;;;;;;;;;;;21.60;90.60;;;;;;5098305;28;20032;-79
2023/10/13 16:03:43;;;;;;;10.30;4.35;;;21.50;90.60;;;;;;5098184;28;20390;-79
2023/10/13 16:06:13;;;;;;;14.00;4.75;;;21.40;91.10;;;;;;5081116;28;20030;-79
2023/10/13 16:08:42;;;;;;;10.98;5.30;;;21.50;91.40;;;;;;5116427;28;20489;-79
2023/10/13 16:11:19;;;;;;;8.93;4.20;;;21.30;91.60;;;;;;5065686;28;20043;-79
2023/10/13 16:13:46;;;;;;;10.32;4.43;;;21.30;91.90;;;;;;5119371;27;20028;-79
2023/10/13 16:16:16;;;;;;;8.68;4.40;;;21.20;91.90;;;;;;5118135;27;20027;-79
2023/10/13 16:18:43;;;;;;;12.10;5.38;;;21.20;91.80;;;;;;5117704;27;20038;-78
2023/10/13 16:21:12;;;;;;;12.15;5.00;;;21.10;91.70;;;;;;5136589;27;20102;-79
2023/10/13 16:23:39;;;;;;;12.68;4.63;;;21.10;91.90;;;;;;5100628;27;20027;-79
2023/10/13 16:26:07;;;;;;;14.40;4.88;;;21.10;92.00;;;;;;5117913;27;20381;-79
2023/10/13 16:28:35;;;;;;;13.13;4.90;;;21.10;92.10;;;;;;5101575;27;20024;-78
2023/10/13 16:31:03;;;;;;;12.13;4.78;;;21.10;92.00;;;;;;5101493;27;20422;-79
2023/10/13 16:33:29;;;;;;;11.57;4.90;;;21.10;92.10;;;;;;5101466;27;20027;-79
2023/10/13 16:35:56;;;;;;;8.25;4.60;;;21.10;92.10;;;;;;5138079;27;20042;-79